Time;durP1;ratioP1;P1;durP2;ratioP2;P2;SDS_P1;SDS_P2;PMS_P1;PMS_P2;Temp;Humidity;BMP_temperature;BMP_pressure;BME280_temperature;BME280_humidity;BME280_pressure;Samples;Min_cycle;Max_cycle;Signal;HPM_P1;HPM_P2
2022/03/13 00:00:36;;;;;;;25.12;11.83;;;;;;;-4.26;53.18;100267.37;1755239;82;20983;-83
2022/03/13 00:03:10;;;;;;;32.25;12.00;;;;;;;-4.33;56.83;100264.02;1742914;81;20956;-82
2022/03/13 00:05:40;;;;;;;28.98;12.75;;;;;;;-4.42;56.92;100264.41;1749885;82;21019;-82
2022/03/13 00:08:25;;;;;;;31.48;11.38;;;;;;;-4.48;57.25;100272.06;1742977;81;21004;-82
2022/03/13 00:11:08;;;;;;;35.03;12.53;;;;;;;-4.48;54.43;100269.53;1748334;82;20988;-82
2022/03/13 00:13:51;;;;;;;29.10;11.53;;;;;;;-4.54;55.05;100270.47;1748504;81;21100;-83
2022/03/13 00:16:17;;;;;;;21.55;10.78;;;;;;;-4.53;55.76;100270.97;1747467;82;21240;-83
2022/03/13 00:18:46;;;;;;;24.35;11.55;;;;;;;-4.55;56.35;100260.72;1747922;82;20975;-83
2022/03/13 00:21:15;;;;;;;26.60;11.25;;;;;;;-4.55;54.41;100262.40;1741204;82;20986;-81
2022/03/13 00:23:43;;;;;;;30.05;11.93;;;;;;;-4.54;53.91;100252.70;1749649;82;21004;-81
2022/03/13 00:26:11;;;;;;;32.30;12.18;;;;;;;-4.55;54.02;100244.63;1740254;82;20988;-82
2022/03/13 00:28:37;;;;;;;37.65;12.98;;;;;;;-4.58;56.05;100246.98;1733157;82;21015;-81
2022/03/13 00:31:06;;;;;;;34.23;12.55;;;;;;;-4.58;55.53;100246.98;1720067;84;20988;-83
2022/03/13 00:33:34;;;;;;;37.60;12.73;;;;;;;-4.57;57.14;100246.22;1722994;82;21020;-81
2022/03/13 00:36:01;;;;;;;36.20;12.13;;;;;;;-4.58;55.97;100251.66;1749902;82;21043;-82
2022/03/13 00:38:27;;;;;;;31.50;13.13;;;;;;;-4.60;54.96;100238.91;1749771;82;20984;-84
2022/03/13 00:40:56;;;;;;;33.53;13.35;;;;;;;-4.64;56.25;100249.66;1749918;81;21023;-83
2022/03/13 00:43:25;;;;;;;39.33;14.23;;;;;;;-4.67;55.38;100254.59;1736748;82;21015;-83
2022/03/13 00:45:52;;;;;;;36.50;12.05;;;;;;;-4.67;55.86;100254.99;1749731;82;20972;-83
2022/03/13 00:48:20;;;;;;;40.50;14.80;;;;;;;-4.69;55.78;100248.55;1749829;82;21095;-84
2022/03/13 00:50:46;;;;;;;34.30;12.40;;;;;;;-4.73;57.12;100236.91;1744924;81;20945;-82
2022/03/13 00:53:13;;;;;;;29.10;12.50;;;;;;;-4.72;58.50;100231.02;1740097;82;21001;-83
2022/03/13 00:55:40;;;;;;;27.30;12.45;;;;;;;-4.70;55.75;100226.50;1746667;82;20963;-83
2022/03/13 00:58:06;;;;;;;38.02;14.15;;;;;;;-4.73;56.14;100230.55;1749686;82;21502;-83
2022/03/13 01:00:33;;;;;;;36.13;13.48;;;;;;;-4.75;56.11;100233.41;1749756;82;21032;-83
2022/03/13 01:03:00;;;;;;;49.58;14.95;;;;;;;-4.73;55.83;100231.42;1753156;81;21061;-84
2022/03/13 01:05:28;;;;;;;44.48;14.35;;;;;;;-4.72;55.69;100231.88;1745241;81;21006;-83
2022/03/13 01:07:56;;;;;;;41.88;14.38;;;;;;;-4.68;57.69;100229.12;1749865;81;21007;-83
2022/03/13 01:10:23;;;;;;;51.10;14.15;;;;;;;-4.65;56.38;100227.63;1734529;81;20980;-82
2022/03/13 01:12:52;;;;;;;42.43;13.78;;;;;;;-4.63;56.09;100232.39;1733461;83;20995;-82
2022/03/13 01:15:20;;;;;;;42.38;15.58;;;;;;;-4.62;56.70;100220.16;1759984;81;20915;-81
2022/03/13 01:17:46;;;;;;;41.25;14.20;;;;;;;-4.60;56.92;100219.87;1744612;82;20959;-82
2022/03/13 01:20:21;;;;;;;43.78;14.90;;;;;;;-4.57;55.55;100222.11;1743435;82;21024;-82
2022/03/13 01:22:49;;;;;;;40.23;12.75;;;;;;;-4.55;57.06;100229.00;1753438;82;20976;-81
2022/03/13 01:25:17;;;;;;;35.80;12.35;;;;;;;-4.53;57.47;100218.94;1767064;80;20988;-82
2022/03/13 01:27:45;;;;;;;28.42;12.95;;;;;;;-4.52;57.27;100223.20;1768072;81;20962;-83
2022/03/13 01:30:15;;;;;;;33.05;12.30;;;;;;;-4.47;57.45;100221.80;1769388;81;20931;-84
2022/03/13 01:32:42;;;;;;;36.35;14.25;;;;;;;-4.43;56.15;100219.89;1769246;81;20948;-83
2022/03/13 01:35:09;;;;;;;37.40;14.83;;;;;;;-4.42;58.29;100221.62;1767812;81;21046;-83
2022/03/13 01:37:40;;;;;;;43.65;15.40;;;;;;;-4.39;57.15;100212.91;1751716;81;20970;-84
2022/03/13 01:40:14;;;;;;;38.15;15.95;;;;;;;-4.34;56.51;100207.66;1715668;82;21083;-83
2022/03/13 01:42:42;;;;;;;40.30;15.08;;;;;;;-4.37;57.81;100207.52;1726775;82;20959;-83
2022/03/13 01:45:12;;;;;;;42.85;16.02;;;;;;;-4.27;56.25;100201.26;1730668;82;21079;-84
2022/03/13 01:47:39;;;;;;;43.33;16.62;;;;;;;-4.26;56.15;100200.08;1739775;81;21129;-82
2022/03/13 01:50:09;;;;;;;35.52;15.08;;;;;;;-4.25;58.08;100189.11;1723410;81;21036;-83
2022/03/13 01:52:39;;;;;;;38.17;13.80;;;;;;;-4.21;56.73;100189.73;1754411;81;20970;-83
2022/03/13 01:55:08;;;;;;;42.20;13.80;;;;;;;-4.23;55.64;100182.44;1728286;81;20994;-83
2022/03/13 01:57:40;;;;;;;40.03;16.25;;;;;;;-4.27;56.69;100184.75;1737779;81;20944;-83
2022/03/13 02:00:07;;;;;;;37.48;14.15;;;;;;;-4.34;59.02;100190.30;1761349;81;21003;-83
2022/03/13 02:02:38;;;;;;;42.40;14.95;;;;;;;-4.40;58.95;100196.82;1735058;81;21121;-81
2022/03/13 02:05:06;;;;;;;39.60;14.50;;;;;;;-4.42;58.98;100197.13;1740267;81;21010;-83
2022/03/13 02:07:35;;;;;;;31.17;12.43;;;;;;;-4.43;58.99;100195.78;1733720;83;20971;-82
2022/03/13 02:10:00;;;;;;;31.27;12.03;;;;;;;-4.47;57.68;100182.45;1760829;81;20975;-83
2022/03/13 02:12:27;;;;;;;29.37;12.88;;;;;;;-4.43;57.17;100183.09;1762222;82;20964;-81
2022/03/13 02:14:53;;;;;;;36.73;13.70;;;;;;;-4.45;57.61;100186.80;1762179;81;21028;-83
2022/03/13 02:17:27;;;;;;;32.05;13.35;;;;;;;-4.44;57.36;100183.86;1759494;81;21091;-81
2022/03/13 02:19:55;;;;;;;38.40;14.00;;;;;;;-4.41;57.33;100184.04;1741079;81;20999;-81
2022/03/13 02:22:22;;;;;;;44.23;14.18;;;;;;;-4.34;56.48;100183.55;1744751;82;21001;-83
2022/03/13 02:24:51;;;;;;;33.02;13.62;;;;;;;-4.32;56.77;100187.03;1751430;81;21006;-81
2022/03/13 02:27:25;;;;;;;28.38;12.73;;;;;;;-4.33;57.16;100178.95;1751176;81;20982;-83
2022/03/13 02:29:53;;;;;;;32.20;12.73;;;;;;;-4.35;58.82;100183.08;1762331;81;20984;-83
2022/03/13 02:32:20;;;;;;;37.75;13.43;;;;;;;-4.30;56.66;100185.45;1756090;81;20989;-83
2022/03/13 02:34:47;;;;;;;40.43;12.98;;;;;;;-4.28;57.40;100180.05;1753756;81;20935;-84
2022/03/13 02:37:36;;;;;;;34.40;12.82;;;;;;;-4.25;57.64;100180.63;1754423;82;20945;-83
2022/03/13 02:40:05;;;;;;;33.28;12.40;;;;;;;-4.22;57.67;100175.31;1762369;81;21015;-83
2022/03/13 02:42:33;;;;;;;28.17;11.83;;;;;;;-4.18;57.98;100180.53;1748300;81;20987;-83
2022/03/13 02:45:00;;;;;;;36.10;11.70;;;;;;;-4.20;58.38;100178.80;1758084;81;21027;-82
2022/03/13 02:47:26;;;;;;;34.98;13.90;;;;;;;-4.16;57.51;100174.73;1762115;82;20952;-83
2022/03/13 02:49:53;;;;;;;26.45;11.63;;;;;;;-4.17;58.68;100175.95;1762124;81;21007;-82
2022/03/13 02:52:19;;;;;;;36.15;14.18;;;;;;;-4.15;57.91;100180.70;1762108;81;20972;-84
2022/03/13 02:54:45;;;;;;;35.50;11.83;;;;;;;-4.14;58.28;100176.08;1763083;81;21021;-82
2022/03/13 02:57:14;;;;;;;36.95;12.78;;;;;;;-4.09;56.98;100174.26;1763093;81;20959;-82
2022/03/13 02:59:41;;;;;;;28.77;11.33;;;;;;;-4.13;58.03;100174.90;1756218;81;20990;-82
2022/03/13 03:02:07;;;;;;;33.45;12.95;;;;;;;-4.13;57.52;100177.44;1766650;81;21017;-82
2022/03/13 03:04:34;;;;;;;25.45;10.38;;;;;;;-4.08;57.36;100187.82;1753166;82;21117;-83
2022/03/13 03:07:03;;;;;;;34.70;11.65;;;;;;;-4.01;57.36;100188.22;1750163;81;21031;-83
2022/03/13 03:09:32;;;;;;;30.75;11.63;;;;;;;-4.02;58.65;100190.30;1750253;82;21058;-83
2022/03/13 03:12:04;;;;;;;29.18;11.90;;;;;;;-3.96;57.91;100185.89;1749542;82;20979;-82
2022/03/13 03:14:33;;;;;;;29.80;10.50;;;;;;;-3.92;57.65;100189.09;1748593;82;21028;-83
2022/03/13 03:16:59;;;;;;;22.48;10.18;;;;;;;-3.85;56.28;100184.78;1749202;82;20981;-83
2022/03/13 03:19:27;;;;;;;25.43;10.18;;;;;;;-3.83;56.82;100181.05;1734800;82;21023;-83
2022/03/13 03:21:53;;;;;;;25.50;10.43;;;;;;;-3.77;56.12;100180.08;1718832;83;21019;-84
2022/03/13 03:24:23;;;;;;;28.35;11.08;;;;;;;-3.73;56.39;100178.57;1719311;82;20961;-82
2022/03/13 03:26:50;;;;;;;31.77;12.53;;;;;;;-3.70;56.01;100179.97;1748612;81;21888;-83
2022/03/13 03:29:17;;;;;;;26.02;10.10;;;;;;;-3.72;57.01;100177.75;1743241;82;21016;-82
2022/03/13 03:31:47;;;;;;;27.82;10.93;;;;;;;-3.70;56.11;100178.70;1748326;82;21047;-82
2022/03/13 03:34:19;;;;;;;28.57;12.20;;;;;;;-3.72;57.19;100169.76;1749721;82;20949;-83
2022/03/13 03:36:50;;;;;;;30.20;11.57;;;;;;;-3.68;57.19;100189.81;1743308;82;20999;-84
2022/03/13 03:39:19;;;;;;;34.50;12.88;;;;;;;-3.69;56.57;100188.95;1743149;82;20936;-81
2022/03/13 03:41:48;;;;;;;24.45;11.10;;;;;;;-3.73;57.08;100179.44;1748720;82;20989;-83
2022/03/13 03:44:15;;;;;;;24.43;10.18;;;;;;;-3.74;57.78;100185.70;1748794;82;21101;-83
2022/03/13 03:46:43;;;;;;;27.00;10.48;;;;;;;-3.71;57.04;100184.19;1748716;82;21128;-83
2022/03/13 03:49:10;;;;;;;32.98;10.88;;;;;;;-3.70;55.97;100183.78;1749575;82;20967;-83
2022/03/13 03:51:37;;;;;;;28.45;9.80;;;;;;;-3.73;56.36;100179.44;1728123;82;20984;-84
2022/03/13 03:54:06;;;;;;;33.08;12.58;;;;;;;-3.73;56.69;100183.66;1731434;82;20960;-84
2022/03/13 03:56:34;;;;;;;30.10;11.43;;;;;;;-3.79;57.81;100179.13;1730175;82;21008;-84
2022/03/13 03:59:01;;;;;;;26.77;11.40;;;;;;;-3.79;57.81;100174.05;1720547;84;20983;-83
2022/03/13 04:01:29;;;;;;;27.07;12.47;;;;;;;-3.76;57.94;100169.13;1738343;82;21031;-84
2022/03/13 04:03:56;;;;;;;34.48;13.98;;;;;;;-3.80;58.28;100165.56;1676098;80;21104;-82
2022/03/13 04:06:23;;;;;;;28.55;10.68;;;;;;;-3.78;57.91;100171.97;1676543;86;21015;-82
2022/03/13 04:08:49;;;;;;;25.60;12.03;;;;;;;-3.72;56.26;100177.75;1672843;85;21079;-81
2022/03/13 04:11:16;;;;;;;30.15;11.50;;;;;;;-3.76;57.11;100179.67;1682464;85;20943;-84
2022/03/13 04:13:42;;;;;;;31.48;11.30;;;;;;;-3.73;56.66;100184.52;1668720;86;21024;-82
2022/03/13 04:16:09;;;;;;;33.35;12.78;;;;;;;-3.70;56.37;100179.60;1682944;85;20994;-82
2022/03/13 04:18:36;;;;;;;33.23;11.68;;;;;;;-3.65;56.12;100175.59;1668916;86;21049;-84
2022/03/13 04:21:05;;;;;;;29.90;12.93;;;;;;;-3.64;55.95;100172.64;1668174;85;21066;-82
2022/03/13 04:23:34;;;;;;;31.62;11.68;;;;;;;-3.62;56.89;100169.78;1686337;85;21030;-82
2022/03/13 04:26:03;;;;;;;35.73;14.55;;;;;;;-3.58;56.31;100169.54;1709170;84;21015;-83
2022/03/13 04:28:30;;;;;;;32.05;12.40;;;;;;;-3.60;57.40;100170.76;1696946;85;20998;-84
2022/03/13 04:30:58;;;;;;;31.40;12.82;;;;;;;-3.56;56.00;100162.48;1731553;80;21032;-83
2022/03/13 04:33:27;;;;;;;30.12;11.00;;;;;;;-3.56;57.91;100166.30;1720989;81;21574;-84
2022/03/13 04:36:00;;;;;;;29.02;11.40;;;;;;;-3.51;55.77;100164.83;1720384;81;21057;-83
2022/03/13 04:38:26;;;;;;;33.28;12.18;;;;;;;-3.53;56.99;100163.02;1765559;79;21093;-84
2022/03/13 04:40:53;;;;;;;30.80;12.55;;;;;;;-3.51;57.58;100162.28;1738790;81;20959;-84
2022/03/13 04:43:21;;;;;;;31.90;11.95;;;;;;;-3.47;57.56;100159.09;1766198;81;20994;-84
2022/03/13 04:45:48;;;;;;;32.20;13.62;;;;;;;-3.48;57.33;100157.36;1766451;81;20998;-83
2022/03/13 04:48:17;;;;;;;38.48;11.75;;;;;;;-3.45;57.82;100156.22;1766512;80;20975;-84
2022/03/13 04:50:45;;;;;;;28.67;11.57;;;;;;;-3.45;56.45;100153.68;1766421;81;21001;-83
2022/03/13 04:53:12;;;;;;;34.38;12.60;;;;;;;-3.45;57.64;100151.14;1745249;81;20999;-83
2022/03/13 04:55:39;;;;;;;32.65;12.28;;;;;;;-3.37;56.29;100151.51;1736105;80;21010;-81
2022/03/13 04:58:08;;;;;;;34.53;14.65;;;;;;;-3.34;56.73;100152.94;1736032;83;21011;-83
2022/03/13 05:00:37;;;;;;;32.70;11.68;;;;;;;-3.31;57.15;100154.34;1736132;80;20977;-82
2022/03/13 05:03:08;;;;;;;35.80;12.47;;;;;;;-3.28;56.82;100156.17;1754222;81;21438;-83
2022/03/13 05:05:34;;;;;;;28.02;11.55;;;;;;;-3.25;56.59;100157.17;1766422;81;21022;-81
2022/03/13 05:08:04;;;;;;;40.40;11.53;;;;;;;-3.19;56.33;100157.86;1766421;80;21005;-83
2022/03/13 05:10:36;;;;;;;29.40;11.57;;;;;;;-3.17;56.92;100167.70;1766431;81;20990;-83
2022/03/13 05:12:59;;;;;;;28.73;10.32;;;;;;;-3.13;55.71;100161.09;1752455;81;21014;-84
2022/03/13 05:15:25;;;;;;;27.45;11.05;;;;;;;-3.12;56.88;100167.53;1758740;81;20980;-83
2022/03/13 05:17:53;;;;;;;34.92;13.22;;;;;;;-3.09;55.99;100167.66;1760601;81;20993;-82
2022/03/13 05:20:19;;;;;;;31.05;10.80;;;;;;;-3.15;56.95;100167.38;1736137;83;20981;-83
2022/03/13 05:22:46;;;;;;;31.30;12.00;;;;;;;-3.12;56.37;100162.83;1765339;81;21435;-83
2022/03/13 05:25:14;;;;;;;33.40;11.20;;;;;;;-3.13;56.81;100166.19;1748566;81;21128;-84
2022/03/13 05:27:41;;;;;;;23.02;9.73;;;;;;;-3.12;56.71;100164.09;1736124;83;21046;-84
2022/03/13 05:30:09;;;;;;;36.48;11.38;;;;;;;-3.05;56.10;100169.55;1736064;83;21039;-83
2022/03/13 05:32:36;;;;;;;27.55;11.00;;;;;;;-3.05;56.52;100168.27;1736159;83;20992;-84
2022/03/13 05:35:03;;;;;;;22.35;11.30;;;;;;;-3.01;56.13;100165.07;1756289;81;20948;-84
2022/03/13 05:37:30;;;;;;;22.20;10.00;;;;;;;-2.96;56.27;100169.50;1776505;80;21035;-84
2022/03/13 05:39:56;;;;;;;26.25;10.25;;;;;;;-2.90;56.69;100163.45;1743755;81;21035;-84
2022/03/13 05:42:25;;;;;;;25.00;10.60;;;;;;;-2.86;56.53;100161.11;1766233;81;21008;-84
2022/03/13 05:44:52;;;;;;;28.05;10.18;;;;;;;-2.83;56.95;100167.59;1764814;81;21032;-84
2022/03/13 05:47:19;;;;;;;25.57;10.10;;;;;;;-2.73;55.85;100164.20;1770994;81;21170;-82
2022/03/13 05:49:47;;;;;;;23.30;10.85;;;;;;;-2.68;56.17;100167.84;1770547;81;21024;-82
2022/03/13 05:52:15;;;;;;;24.95;9.45;;;;;;;-2.67;55.60;100169.16;1753174;81;21020;-84
2022/03/13 05:54:42;;;;;;;26.60;9.90;;;;;;;-2.60;55.56;100175.41;1766889;81;20999;-82
2022/03/13 05:57:11;;;;;;;21.30;8.50;;;;;;;-2.62;55.66;100180.43;1788871;80;21014;-83
2022/03/13 05:59:38;;;;;;;25.95;9.80;;;;;;;-2.54;55.15;100174.83;1709522;84;20997;-84
2022/03/13 06:02:07;;;;;;;25.55;9.78;;;;;;;-2.47;55.18;100167.91;1705984;83;21035;-83
2022/03/13 06:04:37;;;;;;;20.88;9.58;;;;;;;-2.40;55.11;100175.03;1750429;82;21033;-84
2022/03/13 06:07:05;;;;;;;24.27;9.65;;;;;;;-2.32;54.83;100174.95;1789095;80;21072;-82
2022/03/13 06:09:32;;;;;;;21.35;8.45;;;;;;;-2.33;54.88;100173.20;1792346;80;21052;-84
2022/03/13 06:11:59;;;;;;;23.47;9.58;;;;;;;-2.22;54.43;100174.55;1769663;80;21015;-83
2022/03/13 06:14:26;;;;;;;22.17;9.58;;;;;;;-2.18;54.49;100169.19;1761345;81;21023;-82
2022/03/13 06:16:53;;;;;;;22.85;9.80;;;;;;;-2.09;54.21;100169.59;1761319;80;21033;-82
2022/03/13 06:19:20;;;;;;;25.60;8.23;;;;;;;-2.03;53.97;100167.69;1761263;80;21130;-83
2022/03/13 06:21:48;;;;;;;19.77;8.65;;;;;;;-1.92;53.80;100161.79;1761432;81;21031;-82
2022/03/13 06:24:17;;;;;;;27.45;9.13;;;;;;;-1.82;53.52;100172.83;1783261;80;21046;-82
2022/03/13 06:26:43;;;;;;;26.17;10.43;;;;;;;-1.69;53.41;100170.38;1761294;80;21008;-83
2022/03/13 06:29:13;;;;;;;23.85;9.40;;;;;;;-1.62;52.69;100168.14;1761306;82;21004;-83
2022/03/13 06:31:40;;;;;;;22.17;9.50;;;;;;;-1.60;52.15;100174.17;1790300;80;21156;-83
2022/03/13 06:34:08;;;;;;;24.77;10.00;;;;;;;-1.49;51.85;100176.28;1792471;79;20953;-83
2022/03/13 06:36:37;;;;;;;21.25;8.70;;;;;;;-1.36;51.81;100174.70;1740715;80;21140;-83
2022/03/13 06:39:04;;;;;;;18.92;8.40;;;;;;;-1.26;51.60;100175.53;1751529;79;21016;-83
2022/03/13 06:41:31;;;;;;;32.30;9.15;;;;;;;-1.11;51.57;100172.73;1740500;81;20955;-83
2022/03/13 06:43:57;;;;;;;22.20;7.78;;;;;;;-0.94;51.12;100174.64;1759775;81;20941;-84
2022/03/13 06:46:24;;;;;;;28.90;10.88;;;;;;;-0.78;50.98;100168.85;1776829;79;20987;-84
2022/03/13 06:48:50;;;;;;;21.17;8.83;;;;;;;-0.66;49.86;100170.58;1763194;81;21022;-81
2022/03/13 06:51:17;;;;;;;24.75;9.80;;;;;;;-0.51;49.79;100169.02;1743158;81;21015;-82
2022/03/13 06:53:43;;;;;;;23.77;7.67;;;;;;;-0.41;48.46;100171.95;1740300;80;21052;-82
2022/03/13 06:56:10;;;;;;;24.40;9.85;;;;;;;-0.28;49.31;100168.17;1740619;82;21036;-81
2022/03/13 06:58:37;;;;;;;28.77;8.08;;;;;;;-0.16;48.66;100167.73;1754101;81;20956;-83
2022/03/13 07:01:05;;;;;;;20.17;8.65;;;;;;;-0.04;49.34;100163.42;1776233;79;20968;-82
2022/03/13 07:03:32;;;;;;;14.63;6.90;;;;;;;0.02;47.46;100164.95;1780197;81;21000;-82
2022/03/13 07:05:59;;;;;;;15.45;7.45;;;;;;;0.15;47.73;100168.36;1771096;81;21022;-83
2022/03/13 07:08:25;;;;;;;17.02;7.67;;;;;;;0.23;46.94;100167.77;1767706;79;20992;-82
2022/03/13 07:10:52;;;;;;;15.40;7.28;;;;;;;0.31;45.60;100165.05;1743852;80;20993;-82
2022/03/13 07:13:18;;;;;;;17.27;7.83;;;;;;;0.41;44.83;100168.78;1767067;81;21012;-82
2022/03/13 07:15:45;;;;;;;19.65;8.30;;;;;;;0.48;46.42;100163.92;1792266;80;21075;-81
2022/03/13 07:18:11;;;;;;;14.93;7.47;;;;;;;0.63;46.82;100163.95;1771107;80;21005;-82
2022/03/13 07:20:39;;;;;;;20.08;8.40;;;;;;;0.75;46.02;100168.17;1752157;81;21044;-81
2022/03/13 07:23:06;;;;;;;18.70;7.15;;;;;;;0.83;46.34;100165.44;1740730;83;20981;-81
2022/03/13 07:25:32;;;;;;;20.60;8.83;;;;;;;0.90;44.87;100170.36;1761113;81;21005;-83
2022/03/13 07:27:59;;;;;;;23.12;8.75;;;;;;;0.99;44.56;100163.84;1767462;81;21005;-81
2022/03/13 07:30:25;;;;;;;21.40;9.53;;;;;;;1.13;46.13;100162.08;1740649;80;21040;-81
2022/03/13 07:32:52;;;;;;;22.95;10.32;;;;;;;1.27;44.95;100168.48;1740671;83;21017;-81
2022/03/13 07:35:18;;;;;;;18.25;8.30;;;;;;;1.34;44.16;100164.00;1705895;84;21174;-82
2022/03/13 07:37:44;;;;;;;22.85;8.00;;;;;;;1.51;44.98;100158.48;1761171;82;21016;-82
2022/03/13 07:40:13;;;;;;;21.60;8.48;;;;;;;1.67;43.90;100155.55;1761617;82;21054;-80
2022/03/13 07:42:39;;;;;;;22.65;8.98;;;;;;;1.75;43.54;100159.19;1758975;82;21015;-82
2022/03/13 07:45:08;;;;;;;21.45;8.98;;;;;;;1.90;44.25;100159.14;1740427;83;21342;-80
2022/03/13 07:47:35;;;;;;;19.62;8.23;;;;;;;1.98;41.64;100162.78;1771038;81;20953;-80
2022/03/13 07:50:03;;;;;;;21.93;8.30;;;;;;;2.05;40.55;100165.08;1738027;82;21068;-81
2022/03/13 07:52:30;;;;;;;36.88;16.52;;;;;;;2.11;40.68;100163.95;1785861;80;21028;-82
2022/03/13 07:54:56;;;;;;;18.10;8.60;;;;;;;2.21;40.42;100162.50;1785649;80;20985;-80
2022/03/13 07:57:24;;;;;;;24.63;15.32;;;;;;;2.23;39.02;100166.87;1751998;81;20999;-80
2022/03/13 07:59:50;;;;;;;15.55;7.00;;;;;;;2.32;39.50;100168.79;1804388;79;21040;-80
2022/03/13 08:02:16;;;;;;;17.37;6.90;;;;;;;2.41;39.87;100170.31;1771219;80;20987;-80
2022/03/13 08:04:43;;;;;;;16.97;6.95;;;;;;;2.51;38.21;100173.56;1777454;80;21015;-85
2022/03/13 08:07:09;;;;;;;15.13;6.62;;;;;;;2.59;38.19;100174.61;1770846;80;21034;-80
2022/03/13 08:09:36;;;;;;;13.78;6.65;;;;;;;2.66;38.18;100165.34;1780352;80;20987;-85
2022/03/13 08:12:04;;;;;;;22.30;7.53;;;;;;;2.74;39.13;100166.39;1763389;79;20947;-81
2022/03/13 08:14:30;;;;;;;15.90;7.00;;;;;;;2.93;39.16;100166.42;1751838;81;20990;-83
2022/03/13 08:16:57;;;;;;;18.32;6.97;;;;;;;3.12;37.01;100171.96;1739655;80;20969;-85
2022/03/13 08:19:23;;;;;;;17.42;6.42;;;;;;;3.32;39.52;100163.01;1761964;80;21090;-87
2022/03/13 08:21:50;;;;;;;14.83;6.97;;;;;;;3.45;37.57;100160.27;1760995;80;20968;-86
2022/03/13 08:24:17;;;;;;;19.17;6.53;;;;;;;3.46;35.95;100164.98;1760989;80;21020;-84
2022/03/13 08:26:44;;;;;;;17.65;6.53;;;;;;;3.54;37.61;100158.28;1758981;79;20929;-85
2022/03/13 08:29:11;;;;;;;15.20;7.15;;;;;;;3.63;36.00;100149.48;1767965;80;21501;-86
2022/03/13 08:31:38;;;;;;;18.48;7.60;;;;;;;3.81;36.48;100150.69;1768510;79;20924;-87
2022/03/13 08:34:07;;;;;;;22.07;7.92;;;;;;;3.81;35.39;100145.54;1772774;80;20972;-86
2022/03/13 08:36:38;;;;;;;13.15;6.70;;;;;;;3.88;36.14;100155.98;1784228;79;20947;-86
2022/03/13 08:39:05;;;;;;;15.13;7.20;;;;;;;3.93;37.10;100159.91;1771824;80;21107;-87
2022/03/13 08:41:35;;;;;;;16.62;6.75;;;;;;;3.83;35.14;100159.30;1745084;80;20932;-86
2022/03/13 08:44:02;;;;;;;14.45;5.95;;;;;;;3.90;35.07;100168.84;1754280;82;21029;-88
2022/03/13 08:46:28;;;;;;;12.88;6.17;;;;;;;3.86;35.96;100166.66;1733883;82;21524;-87
2022/03/13 08:48:55;;;;;;;12.73;6.25;;;;;;;3.74;35.20;100166.00;1744790;82;21033;-87
2022/03/13 08:51:23;;;;;;;16.00;6.08;;;;;;;3.64;33.97;100161.91;1744464;80;20957;-85
2022/03/13 08:53:51;;;;;;;15.58;5.50;;;;;;;3.62;35.44;100163.59;1733917;80;21496;-86
2022/03/13 08:56:18;;;;;;;15.15;5.95;;;;;;;3.63;34.60;100171.77;1731684;82;20945;-85
2022/03/13 08:58:45;;;;;;;13.13;5.87;;;;;;;3.58;33.79;100174.22;1730638;80;20996;-87
2022/03/13 09:01:11;;;;;;;12.90;6.30;;;;;;;3.65;34.15;100170.09;1738978;80;20948;-84
2022/03/13 09:03:38;;;;;;;16.23;6.65;;;;;;;3.71;35.44;100171.50;1713603;84;21012;-85
2022/03/13 09:06:04;;;;;;;12.78;6.10;;;;;;;3.74;35.49;100164.72;1714748;82;21017;-86
2022/03/13 09:08:31;;;;;;;13.48;6.22;;;;;;;3.77;34.16;100168.61;1710881;82;21465;-86
2022/03/13 09:10:58;;;;;;;13.18;5.42;;;;;;;3.85;33.86;100164.91;1706473;84;20989;-88
2022/03/13 09:13:24;;;;;;;15.35;6.75;;;;;;;3.91;33.84;100164.16;1709948;84;21001;-85
2022/03/13 09:15:51;;;;;;;11.33;5.40;;;;;;;3.92;33.35;100160.73;1712609;82;21493;-83
2022/03/13 09:18:18;;;;;;;15.60;5.67;;;;;;;4.08;33.17;100152.48;1712052;84;20997;-85
2022/03/13 09:20:44;;;;;;;10.50;5.55;;;;;;;4.21;33.50;100152.70;1709321;84;21032;-84
2022/03/13 09:23:11;;;;;;;16.85;5.75;;;;;;;4.36;33.67;100156.84;1707753;82;20993;-87
2022/03/13 09:25:38;;;;;;;13.78;5.97;;;;;;;4.45;32.81;100155.68;1709681;84;21016;-86
2022/03/13 09:28:05;;;;;;;11.25;5.62;;;;;;;4.55;32.87;100149.84;1711182;84;21039;-83
2022/03/13 09:30:34;;;;;;;11.53;4.80;;;;;;;4.66;33.11;100153.03;1734019;83;21028;-83
2022/03/13 09:33:01;;;;;;;11.97;4.90;;;;;;;4.81;31.71;100149.81;1727532;82;21472;-84
2022/03/13 09:35:28;;;;;;;10.70;5.17;;;;;;;4.89;31.42;100150.36;1685115;84;21461;-84
2022/03/13 09:37:55;;;;;;;14.78;5.70;;;;;;;4.93;30.49;100141.86;1700903;84;21072;-86
2022/03/13 09:40:21;;;;;;;11.38;5.72;;;;;;;5.07;31.85;100138.16;1758833;80;20968;-83
2022/03/13 09:42:48;;;;;;;11.50;5.95;;;;;;;5.25;32.12;100138.86;1783816;80;20979;-87
2022/03/13 09:45:16;;;;;;;12.20;5.28;;;;;;;5.35;32.32;100130.39;1765599;80;20979;-86
2022/03/13 09:47:42;;;;;;;11.93;5.37;;;;;;;5.39;29.35;100127.40;1774409;80;20988;-86
2022/03/13 09:50:14;;;;;;;12.37;5.15;;;;;;;5.40;31.09;100126.57;1764189;81;20977;-85
2022/03/13 09:52:42;;;;;;;10.60;5.08;;;;;;;5.52;29.08;100125.86;1764507;81;21532;-86
2022/03/13 09:55:10;;;;;;;10.15;4.85;;;;;;;5.48;28.93;100119.79;1758740;80;21032;-83
2022/03/13 09:57:40;;;;;;;16.48;7.70;;;;;;;5.52;29.08;100120.27;1761222;81;21015;-84
2022/03/13 10:00:11;;;;;;;10.88;5.05;;;;;;;5.57;30.64;100113.86;1733590;81;20989;-83
2022/03/13 10:02:41;;;;;;;11.73;5.33;;;;;;;5.59;30.88;100119.94;1793257;80;20959;-84
2022/03/13 10:05:14;;;;;;;12.35;5.28;;;;;;;5.58;28.42;100119.05;1762979;80;20988;-86
2022/03/13 10:08:01;;;;;;;9.40;4.72;;;;;;;5.66;29.77;100113.98;1757566;80;20961;-84
2022/03/13 10:10:42;;;;;;;14.68;5.22;;;;;;;5.71;29.06;100114.91;1779215;80;20999;-86
2022/03/13 10:13:09;;;;;;;12.63;4.58;;;;;;;5.77;27.58;100113.67;1766258;79;21512;-83
2022/03/13 10:15:47;;;;;;;10.18;4.53;;;;;;;5.92;29.69;100109.08;1761473;81;20977;-83
2022/03/13 10:18:20;;;;;;;10.35;4.45;;;;;;;5.98;29.27;100116.06;1766866;80;20941;-82
2022/03/13 10:20:48;;;;;;;14.07;4.87;;;;;;;6.05;26.94;100108.83;1748730;80;20941;-82
2022/03/13 10:23:17;;;;;;;11.40;4.60;;;;;;;6.11;27.46;100101.57;1762105;81;20983;-87
2022/03/13 10:25:45;;;;;;;18.80;9.28;;;;;;;6.21;27.52;100101.20;1749056;81;20998;-82
2022/03/13 10:28:20;;;;;;;10.75;4.25;;;;;;;6.28;27.49;100098.69;1764329;80;21046;-82
2022/03/13 10:31:00;;;;;;;11.10;5.17;;;;;;;6.33;28.54;100103.48;1750098;81;20966;-83
2022/03/13 10:33:29;;;;;;;14.85;4.00;;;;;;;6.46;28.16;100099.70;1765531;81;21013;-84
2022/03/13 10:36:21;;;;;;;11.00;5.22;;;;;;;6.59;27.47;100091.63;1762589;80;20981;-83
2022/03/13 10:38:50;;;;;;;12.33;5.30;;;;;;;6.63;27.98;100094.23;1747758;81;21636;-83
2022/03/13 10:41:17;;;;;;;9.65;4.72;;;;;;;6.81;29.45;100090.90;1765887;81;21004;-84
2022/03/13 10:43:55;;;;;;;10.58;4.72;;;;;;;6.99;27.57;100084.97;1766989;81;20997;-83
2022/03/13 10:46:29;;;;;;;14.15;6.42;;;;;;;7.21;29.04;100088.96;1743564;81;21044;-83
2022/03/13 10:48:57;;;;;;;8.50;3.72;;;;;;;7.34;27.15;100086.84;1773586;80;21003;-83
2022/03/13 10:51:45;;;;;;;11.00;4.35;;;;;;;7.42;27.23;100086.88;1777069;80;21039;-85
2022/03/13 10:54:34;;;;;;;10.65;4.33;;;;;;;7.55;28.87;100088.65;1769696;79;20960;-85
2022/03/13 10:57:11;;;;;;;8.48;4.25;;;;;;;7.55;27.55;100086.91;1745667;81;20984;-83
2022/03/13 10:59:41;;;;;;;13.53;5.12;;;;;;;7.58;27.22;100082.20;1750553;81;20985;-83
2022/03/13 11:02:13;;;;;;;9.78;5.12;;;;;;;7.74;27.22;100079.22;1730626;83;21476;-82
2022/03/13 11:04:51;;;;;;;13.45;5.45;;;;;;;7.85;26.21;100075.34;1757349;80;20987;-82
2022/03/13 11:07:19;;;;;;;10.63;4.55;;;;;;;7.87;27.14;100079.66;1752924;80;21724;-83
2022/03/13 11:09:46;;;;;;;9.08;4.30;;;;;;;7.88;27.40;100077.52;1752524;80;20977;-82
2022/03/13 11:12:20;;;;;;;12.73;4.65;;;;;;;8.00;26.85;100076.67;1757131;80;20986;-83
2022/03/13 11:14:47;;;;;;;9.23;4.05;;;;;;;8.14;24.81;100063.73;1755977;80;20953;-82
2022/03/13 11:17:14;;;;;;;9.65;3.60;;;;;;;8.14;25.71;100062.00;1730175;83;20963;-83
2022/03/13 11:19:41;;;;;;;22.37;5.95;;;;;;;8.24;25.58;100062.02;1788368;80;20967;-82
2022/03/13 11:22:08;;;;;;;10.10;4.50;;;;;;;8.41;26.08;100064.58;1781761;79;20943;-85